createdAt,value
2022-07-28T00:00:15.360Z,6.82
2022-07-28T00:02:42.729Z,7.00
2022-07-28T00:05:10.387Z,6.35
2022-07-28T00:07:37.687Z,6.15
2022-07-28T00:10:05.838Z,6.20
2022-07-28T00:12:33.113Z,6.30
2022-07-28T00:15:00.880Z,6.20
2022-07-28T00:17:28.251Z,7.10
2022-07-28T00:19:55.503Z,6.47
2022-07-28T00:22:22.851Z,6.55
2022-07-28T00:24:50.266Z,6.75
2022-07-28T00:27:19.459Z,7.47
2022-07-28T00:29:50.355Z,7.65
2022-07-28T00:32:20.633Z,6.82
2022-07-28T00:34:48.468Z,7.70
2022-07-28T00:37:15.697Z,6.93
2022-07-28T00:39:43.988Z,6.80
2022-07-28T00:42:12.308Z,7.13
2022-07-28T00:44:41.870Z,7.57
2022-07-28T00:47:09.542Z,7.70
2022-07-28T00:49:36.897Z,7.05
2022-07-28T00:52:06.532Z,7.30
2022-07-28T00:54:34.770Z,6.45
2022-07-28T00:57:02.321Z,6.85
2022-07-28T00:59:29.604Z,6.90
2022-07-28T01:02:01.078Z,6.22
2022-07-28T01:04:28.919Z,6.40
2022-07-28T01:07:22.490Z,6.15
2022-07-28T01:10:14.264Z,6.78
2022-07-28T01:13:00.419Z,6.85
2022-07-28T01:15:35.223Z,6.00
2022-07-28T01:18:16.983Z,6.82
2022-07-28T01:21:03.037Z,6.40
2022-07-28T01:23:32.699Z,6.68
2022-07-28T01:26:30.281Z,6.55
2022-07-28T01:29:03.232Z,6.95
2022-07-28T01:31:40.049Z,6.72
2022-07-28T01:34:15.658Z,6.72
2022-07-28T01:36:48.352Z,6.05
2022-07-28T01:39:16.589Z,5.63
2022-07-28T01:41:45.089Z,5.68
2022-07-28T01:44:19.202Z,5.95
2022-07-28T01:46:52.019Z,6.32
2022-07-28T01:49:21.676Z,6.07
2022-07-28T01:51:50.467Z,5.60
2022-07-28T01:54:23.111Z,7.57
2022-07-28T01:56:52.316Z,9.38
2022-07-28T01:59:20.981Z,9.43
2022-07-28T02:01:50.968Z,9.30
2022-07-28T02:04:24.202Z,6.72
2022-07-28T02:06:54.707Z,6.68
2022-07-28T02:09:23.376Z,6.37
2022-07-28T02:11:53.656Z,6.70
2022-07-28T02:14:25.600Z,6.73
2022-07-28T02:17:07.975Z,6.63
2022-07-28T02:19:37.604Z,7.57
2022-07-28T02:22:06.798Z,6.70
2022-07-28T02:24:35.806Z,6.60
2022-07-28T02:27:22.472Z,6.90
2022-07-28T02:30:03.285Z,7.23
2022-07-28T02:32:37.376Z,6.60
2022-07-28T02:35:31.939Z,6.77
2022-07-28T02:38:12.580Z,7.43
2022-07-28T02:40:44.809Z,7.67
2022-07-28T02:43:16.698Z,6.70
2022-07-28T02:45:48.378Z,7.17
2022-07-28T02:48:19.490Z,6.33
2022-07-28T02:50:47.735Z,6.83
2022-07-28T02:53:19.705Z,6.67
2022-07-28T02:55:49.223Z,7.50
2022-07-28T02:58:19.390Z,7.00
2022-07-28T03:00:47.956Z,7.30
2022-07-28T03:03:16.715Z,7.77
2022-07-28T03:05:44.501Z,7.05
2022-07-28T03:08:12.261Z,7.25
2022-07-28T03:10:39.659Z,7.67
2022-07-28T03:13:07.540Z,7.67
2022-07-28T03:15:36.475Z,7.50
2022-07-28T03:18:05.996Z,7.83
2022-07-28T03:20:36.999Z,7.50
2022-07-28T03:23:04.412Z,7.55
2022-07-28T03:25:51.074Z,7.78
2022-07-28T03:28:20.610Z,7.53
2022-07-28T03:30:54.865Z,9.00
2022-07-28T03:33:22.283Z,9.02
2022-07-28T03:35:52.985Z,10.13
2022-07-28T03:38:46.168Z,9.73
2022-07-28T03:41:15.350Z,10.33
2022-07-28T03:43:44.943Z,15.63
2022-07-28T03:46:13.709Z,11.52
2022-07-28T03:48:41.202Z,10.07
2022-07-28T03:51:08.558Z,10.37
2022-07-28T03:53:35.987Z,9.63
2022-07-28T03:56:03.954Z,9.80
2022-07-28T03:58:31.752Z,9.43
2022-07-28T04:00:59.522Z,9.43
2022-07-28T04:03:42.493Z,9.57
2022-07-28T04:06:15.594Z,9.07
2022-07-28T04:08:44.458Z,8.17
2022-07-28T04:11:11.932Z,8.07
2022-07-28T04:13:39.399Z,8.17
2022-07-28T04:16:07.573Z,8.07
2022-07-28T04:18:35.249Z,7.57
2022-07-28T04:21:02.641Z,7.67
2022-07-28T04:23:30.841Z,7.97
2022-07-28T04:25:58.192Z,7.93
2022-07-28T04:28:25.474Z,8.18
2022-07-28T04:30:52.753Z,7.72
2022-07-28T04:33:20.738Z,7.80
2022-07-28T04:35:48.041Z,8.20
2022-07-28T04:38:17.981Z,7.75
2022-07-28T04:40:45.767Z,8.02
2022-07-28T04:43:13.694Z,7.63
2022-07-28T04:45:46.025Z,8.93
2022-07-28T04:48:23.093Z,9.05
2022-07-28T04:50:52.728Z,8.75
2022-07-28T04:53:20.614Z,7.45
2022-07-28T04:55:53.455Z,7.47
2022-07-28T04:58:22.607Z,7.25
2022-07-28T05:00:50.930Z,7.80
2022-07-28T05:03:19.271Z,7.43
2022-07-28T05:05:49.038Z,8.32
2022-07-28T05:08:21.498Z,7.60
2022-07-28T05:10:49.230Z,9.55
2022-07-28T05:13:16.513Z,9.45
2022-07-28T05:15:43.740Z,8.32
2022-07-28T05:18:10.997Z,9.30
2022-07-28T05:20:38.210Z,10.55
2022-07-28T05:23:05.598Z,8.75
2022-07-28T05:25:32.954Z,8.60
2022-07-28T05:28:00.237Z,8.15
2022-07-28T05:30:27.588Z,9.30
2022-07-28T05:32:59.245Z,11.68
2022-07-28T05:35:26.998Z,9.77
2022-07-28T05:37:54.209Z,8.57
2022-07-28T05:40:21.555Z,6.93
2022-07-28T05:42:48.948Z,6.45
2022-07-28T05:45:21.807Z,6.97
2022-07-28T05:47:52.454Z,5.60
2022-07-28T05:50:22.272Z,6.65
2022-07-28T05:52:51.221Z,8.50
2022-07-28T05:55:19.419Z,7.65
2022-07-28T05:57:47.160Z,6.07
2022-07-28T06:00:16.745Z,6.75
2022-07-28T06:02:49.492Z,6.45
2022-07-28T06:05:19.149Z,5.72
2022-07-28T06:07:47.763Z,6.18
2022-07-28T06:10:18.457Z,5.88
2022-07-28T06:12:51.160Z,5.57
2022-07-28T06:15:27.164Z,6.38
2022-07-28T06:17:55.955Z,5.43
2022-07-28T06:20:24.697Z,5.90
2022-07-28T06:22:55.612Z,6.30
2022-07-28T06:25:28.382Z,6.82
2022-07-28T06:27:59.951Z,6.88
2022-07-28T06:30:27.820Z,5.75
2022-07-28T06:32:55.454Z,5.78
2022-07-28T06:35:23.151Z,6.22
2022-07-28T06:37:52.214Z,5.85
2022-07-28T06:40:21.242Z,6.00
2022-07-28T06:42:50.024Z,6.15
2022-07-28T06:45:21.303Z,6.28
2022-07-28T06:47:53.799Z,5.78
2022-07-28T06:50:26.510Z,5.72
2022-07-28T06:52:58.995Z,5.72
2022-07-28T06:55:34.481Z,6.13
2022-07-28T06:58:03.799Z,5.60
2022-07-28T07:00:31.602Z,5.93
2022-07-28T07:03:00.555Z,6.18
2022-07-28T07:05:32.040Z,5.57
2022-07-28T07:07:59.876Z,6.10
2022-07-28T07:10:27.547Z,5.85
2022-07-28T07:12:55.527Z,7.55
2022-07-28T07:15:25.821Z,5.70
2022-07-28T07:17:54.271Z,6.15
2022-07-28T07:20:21.604Z,5.97
2022-07-28T07:22:49.029Z,6.75
2022-07-28T07:25:20.670Z,6.32
2022-07-28T07:27:48.600Z,5.95
2022-07-28T07:30:16.958Z,5.93
2022-07-28T07:32:45.205Z,6.30
2022-07-28T07:35:12.667Z,5.90
2022-07-28T07:37:40.189Z,6.45
2022-07-28T07:40:08.874Z,6.20
2022-07-28T07:42:36.253Z,5.90
2022-07-28T07:45:04.226Z,6.53
2022-07-28T07:47:31.643Z,6.43
2022-07-28T07:50:00.850Z,6.60
2022-07-28T07:52:31.042Z,6.70
2022-07-28T07:54:58.349Z,7.07
2022-07-28T07:57:25.670Z,7.75
2022-07-28T07:59:52.895Z,7.60
2022-07-28T08:02:20.123Z,7.10
2022-07-28T08:04:47.781Z,7.60
2022-07-28T08:07:15.972Z,6.43
2022-07-28T08:09:43.267Z,9.45
2022-07-28T08:12:10.571Z,6.95
2022-07-28T08:14:37.799Z,6.38
2022-07-28T08:17:05.184Z,6.53
2022-07-28T08:19:32.480Z,6.13
2022-07-28T08:22:01.290Z,7.20
2022-07-28T08:24:34.047Z,6.53
2022-07-28T08:27:02.994Z,6.18
2022-07-28T08:29:30.582Z,5.93
2022-07-28T08:31:58.503Z,5.60
2022-07-28T08:34:33.076Z,5.97
2022-07-28T08:37:02.702Z,5.78
2022-07-28T08:39:31.348Z,5.78
2022-07-28T08:42:35.327Z,5.30
2022-07-28T08:45:05.322Z,4.85
2022-07-28T08:47:52.026Z,4.60
2022-07-28T08:50:25.381Z,4.72
2022-07-28T08:52:54.367Z,4.88
2022-07-28T08:55:32.144Z,4.55
2022-07-28T08:58:00.879Z,4.55
2022-07-28T09:00:29.553Z,4.18
2022-07-28T09:02:57.377Z,4.25
2022-07-28T09:05:28.248Z,4.40
2022-07-28T09:07:56.000Z,4.40
2022-07-28T09:10:23.761Z,4.63
2022-07-28T09:12:51.681Z,4.18
2022-07-28T09:15:19.062Z,4.00
2022-07-28T09:17:46.402Z,4.20
2022-07-28T09:20:13.935Z,3.67
2022-07-28T09:23:02.641Z,3.95
2022-07-28T09:25:30.876Z,4.20
2022-07-28T09:28:12.699Z,3.65
2022-07-28T09:30:54.086Z,3.75
2022-07-28T09:33:43.167Z,4.07
2022-07-28T09:36:16.490Z,3.80
2022-07-28T09:38:43.976Z,4.13
2022-07-28T09:41:11.796Z,3.80
2022-07-28T09:43:42.511Z,4.18
2022-07-28T09:46:18.338Z,4.03
2022-07-28T09:48:55.322Z,4.07
2022-07-28T09:51:30.713Z,3.90
2022-07-28T09:54:09.858Z,4.20
2022-07-28T09:56:41.924Z,3.67
2022-07-28T09:59:09.494Z,5.00
2022-07-28T10:01:52.508Z,4.20
2022-07-28T10:04:44.413Z,3.80
2022-07-28T10:07:17.272Z,3.40
2022-07-28T10:09:56.345Z,3.50
2022-07-28T10:12:30.741Z,3.85
2022-07-28T10:15:32.772Z,3.60
2022-07-28T10:18:00.296Z,3.80
2022-07-28T10:20:28.910Z,3.63
2022-07-28T10:23:02.020Z,3.50
2022-07-28T10:25:32.930Z,3.13
2022-07-28T10:28:01.752Z,3.05
2022-07-28T10:30:31.812Z,3.60
2022-07-28T10:33:03.358Z,3.45
2022-07-28T10:35:33.434Z,3.17
2022-07-28T10:38:24.093Z,3.20
2022-07-28T10:40:54.215Z,3.60
2022-07-28T10:43:22.555Z,3.55
2022-07-28T10:46:08.102Z,3.78
2022-07-28T10:48:41.070Z,3.45
2022-07-28T10:51:12.049Z,3.97
2022-07-28T10:54:07.076Z,4.68
2022-07-28T10:56:51.514Z,4.20
2022-07-28T10:59:46.213Z,3.38
2022-07-28T11:02:53.418Z,3.40
2022-07-28T11:05:32.684Z,4.00
2022-07-28T11:08:04.029Z,3.47
2022-07-28T11:10:56.270Z,3.10
2022-07-28T11:13:30.011Z,3.42
2022-07-28T11:16:18.524Z,3.15
2022-07-28T11:19:07.833Z,3.65
2022-07-28T11:22:28.154Z,3.78
2022-07-28T11:25:19.233Z,3.25
2022-07-28T11:27:50.049Z,3.67
2022-07-28T11:30:22.853Z,3.53
2022-07-28T11:32:55.769Z,3.45
2022-07-28T11:35:31.415Z,3.60
2022-07-28T11:38:01.551Z,3.15
2022-07-28T11:40:32.993Z,3.35
2022-07-28T11:43:22.373Z,3.40
2022-07-28T11:45:55.445Z,3.35
2022-07-28T11:48:26.460Z,3.30
2022-07-28T11:51:12.967Z,3.42
2022-07-28T11:53:41.459Z,3.42
2022-07-28T11:56:31.718Z,3.42
2022-07-28T11:59:04.039Z,3.58
2022-07-28T12:01:32.469Z,3.03
2022-07-28T12:04:15.278Z,2.90
2022-07-28T12:06:51.137Z,3.10
2022-07-28T12:09:41.335Z,3.75
2022-07-28T12:12:09.900Z,3.45
2022-07-28T12:14:39.868Z,3.80
2022-07-28T12:17:07.588Z,3.38
2022-07-28T12:19:37.754Z,3.72
2022-07-28T12:22:15.551Z,3.58
2022-07-28T12:24:47.571Z,4.50
2022-07-28T12:27:16.669Z,3.45
2022-07-28T12:29:47.985Z,3.53
2022-07-28T12:32:17.718Z,3.70
2022-07-28T12:34:46.053Z,3.15
2022-07-28T12:37:14.803Z,3.53
2022-07-28T12:39:44.368Z,4.57
2022-07-28T12:42:13.608Z,3.40
2022-07-28T12:44:43.154Z,3.70
2022-07-28T12:47:17.762Z,4.00
2022-07-28T12:49:45.881Z,3.45
2022-07-28T12:52:23.118Z,3.50
2022-07-28T12:54:56.189Z,4.55
2022-07-28T12:57:50.770Z,3.53
2022-07-28T13:00:25.862Z,4.30
2022-07-28T13:02:56.771Z,3.55
2022-07-28T13:05:31.154Z,4.30
2022-07-28T13:08:06.241Z,3.97
2022-07-28T13:10:33.928Z,4.22
2022-07-28T13:13:08.484Z,4.85
2022-07-28T13:15:35.983Z,5.13
2022-07-28T13:18:05.107Z,4.25
2022-07-28T13:20:47.091Z,4.05
2022-07-28T13:23:14.624Z,4.32
2022-07-28T13:25:42.086Z,4.30
2022-07-28T13:28:29.818Z,4.18
2022-07-28T13:30:57.180Z,4.15
2022-07-28T13:33:28.444Z,4.32
2022-07-28T13:35:56.201Z,4.50
2022-07-28T13:38:24.008Z,5.28
2022-07-28T13:40:51.364Z,3.85
2022-07-28T13:43:18.713Z,4.20
2022-07-28T13:45:48.077Z,4.13
2022-07-28T13:48:15.373Z,7.32
2022-07-28T13:50:42.630Z,5.97
2022-07-28T13:53:33.732Z,4.40
2022-07-28T13:56:01.192Z,7.90
2022-07-28T13:58:28.514Z,4.65
2022-07-28T14:00:57.261Z,4.45
2022-07-28T14:03:25.356Z,4.85
2022-07-28T14:05:52.839Z,4.30
2022-07-28T14:08:20.629Z,11.38
2022-07-28T14:10:56.718Z,5.00
2022-07-28T14:13:23.961Z,4.55
2022-07-28T14:16:02.023Z,4.70
2022-07-28T14:18:30.008Z,4.13
2022-07-28T14:20:58.529Z,4.90
2022-07-28T14:23:25.792Z,4.60
2022-07-28T14:25:53.518Z,4.20
2022-07-28T14:28:20.830Z,4.82
2022-07-28T14:30:48.055Z,4.68
2022-07-28T14:33:15.475Z,6.47
2022-07-28T14:35:43.057Z,4.35
2022-07-28T14:40:59.536Z,4.85
2022-07-28T14:43:29.315Z,4.57
2022-07-28T14:46:14.729Z,4.75
2022-07-28T14:48:43.929Z,4.95
2022-07-28T14:51:14.624Z,5.22
2022-07-28T14:53:50.021Z,4.32
2022-07-28T14:56:19.494Z,5.07
2022-07-28T14:58:46.771Z,5.35
2022-07-28T15:01:14.431Z,5.70
2022-07-28T15:03:43.236Z,5.57
2022-07-28T15:06:11.165Z,5.88
2022-07-28T15:08:38.421Z,6.07
2022-07-28T15:11:08.127Z,5.38
2022-07-28T15:13:35.561Z,5.07
2022-07-28T15:16:03.077Z,4.72
2022-07-28T15:18:30.435Z,4.90
2022-07-28T15:20:57.720Z,4.68
2022-07-28T15:23:24.967Z,4.45
2022-07-28T15:25:53.247Z,4.88
2022-07-28T15:28:20.995Z,4.70
2022-07-28T15:30:52.705Z,4.30
2022-07-28T15:33:21.126Z,3.88
2022-07-28T15:35:58.173Z,3.72
2022-07-28T15:38:31.608Z,3.53
2022-07-28T15:41:00.186Z,3.95
2022-07-28T15:43:34.932Z,4.28
2022-07-28T15:46:10.559Z,4.13
2022-07-28T15:48:39.877Z,4.43
2022-07-28T15:51:08.424Z,5.10
2022-07-28T15:53:36.789Z,5.10
2022-07-28T15:56:05.312Z,6.43
2022-07-28T15:58:32.811Z,4.55
2022-07-28T16:01:01.769Z,4.55
2022-07-28T16:03:30.715Z,4.72
2022-07-28T16:05:58.816Z,4.60
2022-07-28T16:08:27.248Z,4.20
2022-07-28T16:10:54.984Z,4.72
2022-07-28T16:13:35.781Z,4.50
2022-07-28T16:16:12.385Z,4.82
2022-07-28T16:18:43.266Z,5.53
2022-07-28T16:21:11.503Z,4.55
2022-07-28T16:23:38.874Z,4.18
2022-07-28T16:26:08.727Z,4.30
2022-07-28T16:28:36.674Z,4.47
2022-07-28T16:31:04.186Z,3.95
2022-07-28T16:33:33.449Z,4.22
2022-07-28T16:36:02.643Z,3.80
2022-07-28T16:38:30.586Z,4.80
2022-07-28T16:41:02.161Z,3.97
2022-07-28T16:43:29.505Z,4.32
2022-07-28T16:45:56.915Z,3.95
2022-07-28T16:48:25.986Z,3.95
2022-07-28T16:50:53.247Z,4.03
2022-07-28T16:53:20.503Z,5.30
2022-07-28T16:55:48.281Z,4.50
2022-07-28T16:58:15.722Z,3.90
2022-07-28T17:00:43.579Z,3.83
2022-07-28T17:03:11.041Z,3.88
2022-07-28T17:05:38.770Z,4.05
2022-07-28T17:08:06.853Z,4.00
2022-07-28T17:10:35.319Z,3.85
2022-07-28T17:13:03.163Z,3.85
2022-07-28T17:15:30.506Z,3.90
2022-07-28T17:17:59.118Z,3.38
2022-07-28T17:20:26.489Z,4.20
2022-07-28T17:22:53.896Z,3.92
2022-07-28T17:28:08.822Z,4.22
2022-07-28T17:30:36.557Z,3.75
2022-07-28T17:33:08.790Z,3.60
2022-07-28T17:35:38.611Z,3.83
2022-07-28T17:38:08.486Z,3.45
2022-07-28T17:40:38.355Z,3.63
2022-07-28T17:43:12.044Z,4.03
2022-07-28T17:45:40.073Z,3.33
2022-07-28T17:48:07.471Z,3.63
2022-07-28T17:50:37.382Z,3.25
2022-07-28T17:53:05.142Z,3.53
2022-07-28T17:55:57.690Z,3.03
2022-07-28T17:58:32.270Z,3.03
2022-07-28T18:01:12.189Z,3.05
2022-07-28T18:03:56.829Z,2.60
2022-07-28T18:06:34.831Z,3.05
2022-07-28T18:09:06.294Z,2.70
2022-07-28T18:11:37.556Z,3.20
2022-07-28T18:14:25.995Z,2.65
2022-07-28T18:16:53.295Z,2.70
2022-07-28T18:19:20.687Z,2.83
2022-07-28T18:21:47.983Z,3.35
2022-07-28T18:24:15.567Z,2.53
2022-07-28T18:26:43.174Z,3.03
2022-07-28T18:29:10.469Z,2.53
2022-07-28T18:31:45.441Z,3.40
2022-07-28T18:34:14.515Z,5.80
2022-07-28T18:36:42.392Z,7.43
2022-07-28T18:39:09.980Z,9.40
2022-07-28T18:41:47.154Z,6.88
2022-07-28T18:44:17.785Z,4.53
2022-07-28T18:46:45.883Z,5.82
2022-07-28T18:49:14.061Z,6.60
2022-07-28T18:51:45.359Z,4.97
2022-07-28T18:54:20.001Z,2.92
2022-07-28T18:56:52.333Z,2.50
2022-07-28T18:59:19.958Z,2.20
2022-07-28T19:01:47.365Z,1.60
2022-07-28T19:04:14.905Z,2.03
2022-07-28T19:06:42.607Z,1.80
2022-07-28T19:09:10.222Z,1.85
2022-07-28T19:11:41.181Z,1.60
2022-07-28T19:14:12.648Z,1.90
2022-07-28T19:16:40.025Z,1.42
2022-07-28T19:19:07.352Z,1.80
2022-07-28T19:21:35.238Z,1.80
2022-07-28T19:24:02.882Z,1.50
2022-07-28T19:26:30.189Z,1.50
2022-07-28T19:28:57.743Z,1.52
2022-07-28T19:31:25.784Z,1.90
2022-07-28T19:33:53.346Z,1.60
2022-07-28T19:36:22.392Z,2.03
2022-07-28T19:38:52.431Z,2.00
2022-07-28T19:41:22.680Z,2.10
2022-07-28T19:43:50.112Z,1.90
2022-07-28T19:46:19.001Z,1.80
2022-07-28T19:48:46.474Z,2.30
2022-07-28T19:51:14.950Z,2.00
2022-07-28T19:53:43.401Z,1.70
2022-07-28T19:56:12.034Z,1.80
2022-07-28T19:58:39.471Z,1.80
2022-07-28T20:01:07.054Z,1.33
2022-07-28T20:04:02.669Z,1.55
2022-07-28T20:06:25.321Z,1.63
2022-07-28T20:08:54.193Z,1.55
2022-07-28T20:11:21.572Z,1.60
2022-07-28T20:13:49.548Z,1.58
2022-07-28T20:16:17.582Z,1.70
2022-07-28T20:18:44.988Z,1.50
2022-07-28T20:21:12.331Z,1.48
2022-07-28T20:23:41.061Z,1.48
2022-07-28T20:26:10.143Z,1.63
2022-07-28T20:28:38.081Z,1.50
2022-07-28T20:31:07.437Z,1.60
2022-07-28T20:33:34.745Z,1.90
2022-07-28T20:36:02.019Z,1.88
2022-07-28T20:38:29.257Z,1.88
2022-07-28T20:40:56.539Z,1.67
2022-07-28T20:43:23.783Z,2.00
2022-07-28T20:46:05.856Z,1.83
2022-07-28T20:48:33.395Z,1.88
2022-07-28T20:51:00.657Z,1.65
2022-07-28T20:53:27.975Z,1.70
2022-07-28T20:55:55.403Z,1.52
2022-07-28T20:58:22.628Z,1.60
2022-07-28T21:00:51.325Z,1.58
2022-07-28T21:03:19.151Z,1.73
2022-07-28T21:05:46.388Z,1.58
2022-07-28T21:08:16.097Z,1.58
2022-07-28T21:10:44.958Z,1.50
2022-07-28T21:13:12.319Z,1.63
2022-07-28T21:15:39.585Z,2.25
2022-07-28T21:18:06.821Z,1.73
2022-07-28T21:20:34.231Z,2.00
2022-07-28T21:23:01.722Z,1.42
2022-07-28T21:25:34.740Z,1.58
2022-07-28T21:28:20.939Z,1.75
2022-07-28T21:30:48.172Z,1.80
2022-07-28T21:33:22.538Z,1.50
2022-07-28T21:35:51.127Z,2.00
2022-07-28T21:38:18.375Z,1.98
2022-07-28T21:40:45.589Z,2.50
2022-07-28T21:43:12.812Z,2.17
2022-07-28T21:45:40.252Z,1.98
2022-07-28T21:48:07.652Z,1.55
2022-07-28T21:50:37.524Z,1.77
2022-07-28T21:53:05.097Z,1.70
2022-07-28T21:55:32.421Z,1.70
2022-07-28T21:57:59.673Z,1.85
2022-07-28T22:00:26.959Z,1.80
2022-07-28T22:02:54.279Z,1.45
2022-07-28T22:05:21.741Z,1.60
2022-07-28T22:07:49.299Z,1.50
2022-07-28T22:10:17.529Z,1.67
2022-07-28T22:12:45.741Z,1.60
2022-07-28T22:15:12.960Z,1.80
2022-07-28T22:17:40.201Z,1.73
2022-07-28T22:20:10.426Z,1.58
2022-07-28T22:22:38.129Z,1.85
2022-07-28T22:25:05.812Z,1.50
2022-07-28T22:27:33.177Z,1.50
2022-07-28T22:30:00.434Z,1.40
2022-07-28T22:32:28.880Z,1.83
2022-07-28T22:34:58.223Z,1.55
2022-07-28T22:37:25.700Z,1.42
2022-07-28T22:39:53.158Z,1.40
2022-07-28T22:42:20.414Z,1.85
2022-07-28T22:44:48.652Z,1.48
2022-07-28T22:47:16.069Z,1.70
2022-07-28T22:49:43.395Z,1.60
2022-07-28T22:52:10.770Z,1.60
2022-07-28T22:54:39.184Z,1.70
2022-07-28T22:57:07.277Z,1.75
2022-07-28T22:59:39.871Z,1.60
2022-07-28T23:02:08.006Z,1.57
2022-07-28T23:04:38.409Z,1.58
2022-07-28T23:07:05.966Z,1.88
2022-07-28T23:09:41.076Z,1.50
2022-07-28T23:12:10.573Z,1.67
2022-07-28T23:14:37.961Z,2.30
2022-07-28T23:17:05.531Z,1.70
2022-07-28T23:19:32.961Z,1.70
2022-07-28T23:22:00.328Z,2.00
2022-07-28T23:24:27.800Z,1.65
2022-07-28T23:26:55.907Z,1.70
2022-07-28T23:29:23.423Z,1.80
2022-07-28T23:31:51.346Z,1.87
2022-07-28T23:34:19.137Z,1.70
2022-07-28T23:36:48.067Z,1.80
2022-07-28T23:39:15.557Z,1.85
2022-07-28T23:41:43.028Z,2.20
2022-07-28T23:44:10.507Z,2.00
2022-07-28T23:46:37.925Z,1.63
2022-07-28T23:49:05.767Z,1.90
2022-07-28T23:51:47.179Z,1.87
2022-07-28T23:54:16.526Z,1.80
2022-07-28T23:56:44.299Z,2.13
2022-07-28T23:59:14.433Z,1.70
